<?xml version="1.0" encoding="UTF-8"?>
<gpx version="1.1" creator="2bulu-scraper" xmlns="http://www.topografix.com/GPX/1/1">
  <metadata><name>峨眉山北线</name><desc>source: 2bulu.com trackId=88250780; exported 2026-09-01T15:59:48.594Z</desc>
    <bounds minlat="29.522709" minlon="103.326829" maxlat="29.58309" maxlon="103.441487"/>
    <link href="https://www.2bulu.com/track/t-njXqBHcCmWTp%252FR2KBg5Tzw%253D%253D.htm"><text>2bulu 源页面</text></link>
  </metadata>
  <wpt lat="29.570569" lon="103.441509"><ele>537</ele><name></name></wpt>
  <wpt lat="29.569529" lon="103.440992"><ele>538</ele><name></name></wpt>
  <wpt lat="29.567226" lon="103.437988"><ele>555</ele><name></name></wpt>
  <wpt lat="29.565748" lon="103.434198"><ele>588</ele><name></name></wpt>
  <wpt lat="29.565238" lon="103.429985"><ele>627</ele><name></name></wpt>
  <wpt lat="29.564909" lon="103.426829"><ele>660</ele><name></name></wpt>
  <wpt lat="29.565174" lon="103.425781"><ele>698</ele><name></name></wpt>
  <wpt lat="29.564453" lon="103.4231"><ele>766</ele><name></name></wpt>
  <wpt lat="29.564392" lon="103.421329"><ele>803</ele><name></name></wpt>
  <wpt lat="29.565927" lon="103.421107"><ele>849</ele><name></name></wpt>
  <wpt lat="29.569303" lon="103.419723"><ele>936</ele><name></name></wpt>
  <wpt lat="29.570687" lon="103.415976"><ele>929</ele><name></name></wpt>
  <wpt lat="29.569251" lon="103.414867"><ele>926</ele><name></name></wpt>
  <wpt lat="29.569047" lon="103.414368"><ele>927</ele><name></name></wpt>
  <wpt lat="29.569124" lon="103.413845"><ele>924</ele><name></name></wpt>
  <wpt lat="29.567592" lon="103.408458"><ele>826</ele><name></name></wpt>
  <wpt lat="29.567281" lon="103.408577"><ele>820</ele><name></name></wpt>
  <wpt lat="29.566612" lon="103.408016"><ele>818</ele><name></name></wpt>
  <wpt lat="29.573694" lon="103.393412"><ele>728</ele><name></name></wpt>
  <wpt lat="29.577416" lon="103.390946"><ele>791</ele><name></name></wpt>
  <wpt lat="29.581579" lon="103.383709"><ele>983</ele><name></name></wpt>
  <wpt lat="29.582956" lon="103.378722"><ele>1038</ele><name></name></wpt>
  <wpt lat="29.581098" lon="103.37651"><ele>1214</ele><name></name></wpt>
  <wpt lat="29.580661" lon="103.374728"><ele>1325</ele><name></name></wpt>
  <wpt lat="29.5709" lon="103.361516"><ele>1706</ele><name></name></wpt>
  <wpt lat="29.560161" lon="103.344305"><ele>1919</ele><name></name></wpt>
  <wpt lat="29.560159" lon="103.344305"><ele>1920</ele><name></name></wpt>
  <wpt lat="29.553762" lon="103.345357"><ele>2268</ele><name></name></wpt>
  <wpt lat="29.523814" lon="103.334938"><ele>3037</ele><name></name></wpt>
  <wpt lat="29.523091" lon="103.336321"><ele>3066</ele><name></name></wpt>
  <wpt lat="29.523104" lon="103.336413"><ele>3065</ele><name></name></wpt>
  <trk><name>峨眉山北线</name>
      <trkseg>
        <trkpt lat="29.570598" lon="103.441487"><ele>541.22125</ele><time>2026-08-07T16:57:57.000Z</time></trkpt>
        <trkpt lat="29.569888" lon="103.44106"><ele>537.9985</ele><time>2026-08-07T16:59:56.000Z</time></trkpt>
        <trkpt lat="29.569239" lon="103.440941"><ele>531.4928</ele><time>2026-08-07T17:01:26.000Z</time></trkpt>
        <trkpt lat="29.568783" lon="103.439975"><ele>537.68884</ele><time>2026-08-07T17:03:14.000Z</time></trkpt>
        <trkpt lat="29.567087" lon="103.437768"><ele>554.507</ele><time>2026-08-07T17:08:06.000Z</time></trkpt>
        <trkpt lat="29.566358" lon="103.43648"><ele>566.95074</ele><time>2026-08-07T17:10:58.000Z</time></trkpt>
        <trkpt lat="29.565926" lon="103.435133"><ele>575.7378</ele><time>2026-08-07T17:13:30.000Z</time></trkpt>
        <trkpt lat="29.565543" lon="103.434732"><ele>577.823</ele><time>2026-08-07T17:14:30.000Z</time></trkpt>
        <trkpt lat="29.565588" lon="103.434341"><ele>586.8546</ele><time>2026-08-07T17:16:17.000Z</time></trkpt>
        <trkpt lat="29.565784" lon="103.43414"><ele>587.5583</ele><time>2026-08-07T17:19:09.000Z</time></trkpt>
        <trkpt lat="29.565711" lon="103.433075"><ele>594.69995</ele><time>2026-08-07T17:21:05.000Z</time></trkpt>
        <trkpt lat="29.565329" lon="103.431941"><ele>605.56433</ele><time>2026-08-07T17:23:32.000Z</time></trkpt>
        <trkpt lat="29.565549" lon="103.431059"><ele>620.1603</ele><time>2026-08-07T17:25:26.000Z</time></trkpt>
        <trkpt lat="29.565373" lon="103.430829"><ele>620.82513</ele><time>2026-08-07T17:25:58.000Z</time></trkpt>
        <trkpt lat="29.565209" lon="103.429794"><ele>631.6124</ele><time>2026-08-07T17:27:46.000Z</time></trkpt>
        <trkpt lat="29.564777" lon="103.428974"><ele>644.5648</ele><time>2026-08-07T17:29:57.000Z</time></trkpt>
        <trkpt lat="29.564846" lon="103.428512"><ele>640.0243</ele><time>2026-08-07T17:30:34.000Z</time></trkpt>
        <trkpt lat="29.565433" lon="103.428088"><ele>663.22217</ele><time>2026-08-07T17:32:03.000Z</time></trkpt>
        <trkpt lat="29.565466" lon="103.42782"><ele>670.23114</ele><time>2026-08-07T17:32:31.000Z</time></trkpt>
        <trkpt lat="29.565384" lon="103.427315"><ele>673.9801</ele><time>2026-08-07T17:33:33.000Z</time></trkpt>
        <trkpt lat="29.564899" lon="103.426792"><ele>657.8965</ele><time>2026-08-07T17:34:37.000Z</time></trkpt>
        <trkpt lat="29.565211" lon="103.425809"><ele>698.8045</ele><time>2026-08-07T17:42:40.000Z</time></trkpt>
        <trkpt lat="29.564807" lon="103.425169"><ele>704.5436</ele><time>2026-08-07T17:45:45.000Z</time></trkpt>
        <trkpt lat="29.564708" lon="103.424355"><ele>720.38654</ele><time>2026-08-07T17:48:01.000Z</time></trkpt>
        <trkpt lat="29.564368" lon="103.423792"><ele>735.3549</ele><time>2026-08-07T17:51:13.000Z</time></trkpt>
        <trkpt lat="29.5645" lon="103.423529"><ele>744.4261</ele><time>2026-08-07T17:51:56.000Z</time></trkpt>
        <trkpt lat="29.564445" lon="103.423133"><ele>762.47046</ele><time>2026-08-07T17:54:37.000Z</time></trkpt>
        <trkpt lat="29.564589" lon="103.423142"><ele>761.0015</ele><time>2026-08-07T17:55:36.000Z</time></trkpt>
        <trkpt lat="29.564283" lon="103.421403"><ele>805.1393</ele><time>2026-08-07T18:02:49.000Z</time></trkpt>
        <trkpt lat="29.564675" lon="103.421116"><ele>813.75214</ele><time>2026-08-07T18:06:56.000Z</time></trkpt>
        <trkpt lat="29.564881" lon="103.421379"><ele>818.3265</ele><time>2026-08-07T18:08:08.000Z</time></trkpt>
        <trkpt lat="29.565295" lon="103.421213"><ele>834.69073</ele><time>2026-08-07T18:10:26.000Z</time></trkpt>
        <trkpt lat="29.565396" lon="103.421313"><ele>835.22565</ele><time>2026-08-07T18:20:37.000Z</time></trkpt>
        <trkpt lat="29.565365" lon="103.421159"><ele>834.1916</ele><time>2026-08-07T18:24:16.000Z</time></trkpt>
        <trkpt lat="29.565564" lon="103.421072"><ele>837.26306</ele><time>2026-08-07T18:24:48.000Z</time></trkpt>
        <trkpt lat="29.566119" lon="103.421111"><ele>845.5187</ele><time>2026-08-07T18:26:06.000Z</time></trkpt>
        <trkpt lat="29.566657" lon="103.419813"><ele>850.3093</ele><time>2026-08-07T18:28:59.000Z</time></trkpt>
        <trkpt lat="29.567207" lon="103.420484"><ele>873.4294</ele><time>2026-08-07T18:31:47.000Z</time></trkpt>
        <trkpt lat="29.568016" lon="103.420119"><ele>905.1488</ele><time>2026-08-07T18:35:23.000Z</time></trkpt>
        <trkpt lat="29.568537" lon="103.420054"><ele>926.5139</ele><time>2026-08-07T18:37:59.000Z</time></trkpt>
        <trkpt lat="29.568536" lon="103.420162"><ele>926.63727</ele><time>2026-08-07T18:38:25.000Z</time></trkpt>
        <trkpt lat="29.569484" lon="103.41963"><ele>932.01715</ele><time>2026-08-07T18:47:07.000Z</time></trkpt>
        <trkpt lat="29.569769" lon="103.419188"><ele>933.5478</ele><time>2026-08-07T18:48:19.000Z</time></trkpt>
        <trkpt lat="29.570039" lon="103.417132"><ele>923.07874</ele><time>2026-08-07T18:51:43.000Z</time></trkpt>
        <trkpt lat="29.570318" lon="103.417042"><ele>922.8237</ele><time>2026-08-07T18:52:19.000Z</time></trkpt>
        <trkpt lat="29.570372" lon="103.41625"><ele>923.38245</ele><time>2026-08-07T18:53:39.000Z</time></trkpt>
        <trkpt lat="29.570712" lon="103.415996"><ele>925.8057</ele><time>2026-08-07T18:54:55.000Z</time></trkpt>
        <trkpt lat="29.570352" lon="103.415603"><ele>927.3091</ele><time>2026-08-07T18:56:05.000Z</time></trkpt>
        <trkpt lat="29.569971" lon="103.415458"><ele>930.7251</ele><time>2026-08-07T18:57:07.000Z</time></trkpt>
        <trkpt lat="29.56966" lon="103.414752"><ele>929.1115</ele><time>2026-08-07T18:58:27.000Z</time></trkpt>
        <trkpt lat="29.56924" lon="103.414868"><ele>926.03033</ele><time>2026-08-07T18:59:21.000Z</time></trkpt>
        <trkpt lat="29.569073" lon="103.414585"><ele>924.34467</ele><time>2026-08-07T18:59:57.000Z</time></trkpt>
        <trkpt lat="29.56914" lon="103.413885"><ele>922.7621</ele><time>2026-08-07T19:01:14.000Z</time></trkpt>
        <trkpt lat="29.568981" lon="103.41329"><ele>923.4264</ele><time>2026-08-07T19:05:03.000Z</time></trkpt>
        <trkpt lat="29.569396" lon="103.412685"><ele>918.6618</ele><time>2026-08-07T19:06:25.000Z</time></trkpt>
        <trkpt lat="29.569345" lon="103.412256"><ele>905.4822</ele><time>2026-08-07T19:08:23.000Z</time></trkpt>
        <trkpt lat="29.569111" lon="103.412224"><ele>899.8734</ele><time>2026-08-07T19:09:15.000Z</time></trkpt>
        <trkpt lat="29.568362" lon="103.411559"><ele>884.08844</ele><time>2026-08-07T19:11:32.000Z</time></trkpt>
        <trkpt lat="29.568633" lon="103.410584"><ele>880.86816</ele><time>2026-08-07T19:13:09.000Z</time></trkpt>
        <trkpt lat="29.5686" lon="103.410072"><ele>874.7526</ele><time>2026-08-07T19:14:06.000Z</time></trkpt>
        <trkpt lat="29.568324" lon="103.409848"><ele>870.1328</ele><time>2026-08-07T19:14:47.000Z</time></trkpt>
        <trkpt lat="29.567764" lon="103.408548"><ele>829.0961</ele><time>2026-08-07T19:19:42.000Z</time></trkpt>
        <trkpt lat="29.567586" lon="103.40846"><ele>826.0118</ele><time>2026-08-07T19:20:16.000Z</time></trkpt>
        <trkpt lat="29.567459" lon="103.408674"><ele>819.15704</ele><time>2026-08-07T19:22:48.000Z</time></trkpt>
        <trkpt lat="29.566781" lon="103.408459"><ele>818.13074</ele><time>2026-08-07T19:24:00.000Z</time></trkpt>
        <trkpt lat="29.566568" lon="103.408013"><ele>818.492</ele><time>2026-08-07T19:25:24.000Z</time></trkpt>
        <trkpt lat="29.566708" lon="103.407669"><ele>818.35693</ele><time>2026-08-07T19:27:20.000Z</time></trkpt>
        <trkpt lat="29.566549" lon="103.407657"><ele>819.3936</ele><time>2026-08-07T19:28:21.000Z</time></trkpt>
        <trkpt lat="29.566551" lon="103.407951"><ele>818.31323</ele><time>2026-08-07T19:29:10.000Z</time></trkpt>
        <trkpt lat="29.566456" lon="103.406872"><ele>820.9511</ele><time>2026-08-07T19:32:53.000Z</time></trkpt>
        <trkpt lat="29.566896" lon="103.40642"><ele>817.4485</ele><time>2026-08-07T19:34:10.000Z</time></trkpt>
        <trkpt lat="29.567162" lon="103.405866"><ele>810.6684</ele><time>2026-08-07T19:35:07.000Z</time></trkpt>
        <trkpt lat="29.566726" lon="103.405225"><ele>808.8847</ele><time>2026-08-07T19:36:14.000Z</time></trkpt>
        <trkpt lat="29.56678" lon="103.405118"><ele>809.2679</ele><time>2026-08-07T19:36:26.000Z</time></trkpt>
        <trkpt lat="29.56778" lon="103.405108"><ele>805.0093</ele><time>2026-08-07T19:38:10.000Z</time></trkpt>
        <trkpt lat="29.568226" lon="103.404846"><ele>802.53516</ele><time>2026-08-07T19:38:58.000Z</time></trkpt>
        <trkpt lat="29.568814" lon="103.403965"><ele>793.37573</ele><time>2026-08-07T19:40:24.000Z</time></trkpt>
        <trkpt lat="29.569091" lon="103.404"><ele>791.9658</ele><time>2026-08-07T19:40:52.000Z</time></trkpt>
        <trkpt lat="29.569435" lon="103.403812"><ele>791.4606</ele><time>2026-08-07T19:41:26.000Z</time></trkpt>
        <trkpt lat="29.570164" lon="103.402888"><ele>784.54346</ele><time>2026-08-07T19:43:07.000Z</time></trkpt>
        <trkpt lat="29.570833" lon="103.402698"><ele>775.4894</ele><time>2026-08-07T19:44:12.000Z</time></trkpt>
        <trkpt lat="29.571515" lon="103.401956"><ele>768.80664</ele><time>2026-08-07T19:45:54.000Z</time></trkpt>
        <trkpt lat="29.571926" lon="103.401875"><ele>769.90906</ele><time>2026-08-07T19:46:58.000Z</time></trkpt>
        <trkpt lat="29.571788" lon="103.40185"><ele>769.99414</ele><time>2026-08-07T19:47:42.000Z</time></trkpt>
        <trkpt lat="29.572032" lon="103.401491"><ele>774.32434</ele><time>2026-08-07T19:48:40.000Z</time></trkpt>
        <trkpt lat="29.57184" lon="103.39949"><ele>835.11383</ele><time>2026-08-07T20:01:28.000Z</time></trkpt>
        <trkpt lat="29.57161" lon="103.398954"><ele>847.43933</ele><time>2026-08-07T20:03:20.000Z</time></trkpt>
        <trkpt lat="29.571467" lon="103.397437"><ele>821.44574</ele><time>2026-08-07T20:08:10.000Z</time></trkpt>
        <trkpt lat="29.571786" lon="103.396821"><ele>800.2601</ele><time>2026-08-07T20:09:50.000Z</time></trkpt>
        <trkpt lat="29.572309" lon="103.396671"><ele>780.8396</ele><time>2026-08-07T20:11:41.000Z</time></trkpt>
        <trkpt lat="29.572409" lon="103.396074"><ele>772.3895</ele><time>2026-08-07T20:12:55.000Z</time></trkpt>
        <trkpt lat="29.572981" lon="103.395335"><ele>756.84937</ele><time>2026-08-07T20:14:45.000Z</time></trkpt>
        <trkpt lat="29.572914" lon="103.394791"><ele>749.99963</ele><time>2026-08-07T20:15:54.000Z</time></trkpt>
        <trkpt lat="29.572722" lon="103.394549"><ele>740.7813</ele><time>2026-08-07T20:16:41.000Z</time></trkpt>
        <trkpt lat="29.57304" lon="103.393766"><ele>728.8331</ele><time>2026-08-07T20:18:19.000Z</time></trkpt>
        <trkpt lat="29.573913" lon="103.393304"><ele>721.4825</ele><time>2026-08-07T20:20:43.000Z</time></trkpt>
        <trkpt lat="29.574118" lon="103.392716"><ele>712.2695</ele><time>2026-08-07T20:22:11.000Z</time></trkpt>
        <trkpt lat="29.574028" lon="103.392449"><ele>704.3644</ele><time>2026-08-07T20:23:27.000Z</time></trkpt>
        <trkpt lat="29.574411" lon="103.392116"><ele>700.9544</ele><time>2026-08-07T20:27:05.000Z</time></trkpt>
        <trkpt lat="29.575379" lon="103.391854"><ele>730.3029</ele><time>2026-08-07T20:31:21.000Z</time></trkpt>
        <trkpt lat="29.576591" lon="103.391937"><ele>769.6729</ele><time>2026-08-07T20:41:24.000Z</time></trkpt>
        <trkpt lat="29.577257" lon="103.390934"><ele>786.48895</ele><time>2026-08-07T20:44:04.000Z</time></trkpt>
        <trkpt lat="29.577823" lon="103.391087"><ele>798.52124</ele><time>2026-08-07T20:45:58.000Z</time></trkpt>
        <trkpt lat="29.57783" lon="103.391253"><ele>796.3451</ele><time>2026-08-07T20:46:34.000Z</time></trkpt>
        <trkpt lat="29.578496" lon="103.389777"><ele>809.41644</ele><time>2026-08-07T20:50:22.000Z</time></trkpt>
        <trkpt lat="29.578334" lon="103.389197"><ele>814.5881</ele><time>2026-08-07T20:51:32.000Z</time></trkpt>
        <trkpt lat="29.578416" lon="103.388892"><ele>812.4662</ele><time>2026-08-07T20:52:10.000Z</time></trkpt>
        <trkpt lat="29.578779" lon="103.388817"><ele>810.2329</ele><time>2026-08-07T20:52:56.000Z</time></trkpt>
        <trkpt lat="29.579013" lon="103.388558"><ele>813.7188</ele><time>2026-08-07T20:53:44.000Z</time></trkpt>
        <trkpt lat="29.578961" lon="103.387312"><ele>830.86926</ele><time>2026-08-07T20:57:00.000Z</time></trkpt>
        <trkpt lat="29.579396" lon="103.386416"><ele>857.30945</ele><time>2026-08-07T21:01:46.000Z</time></trkpt>
        <trkpt lat="29.579349" lon="103.386047"><ele>874.73663</ele><time>2026-08-07T21:02:58.000Z</time></trkpt>
        <trkpt lat="29.580819" lon="103.384238"><ele>935.0971</ele><time>2026-08-07T21:20:41.000Z</time></trkpt>
        <trkpt lat="29.581336" lon="103.384383"><ele>972.46985</ele><time>2026-08-07T21:23:37.000Z</time></trkpt>
        <trkpt lat="29.581622" lon="103.384287"><ele>968.52734</ele><time>2026-08-07T21:24:27.000Z</time></trkpt>
        <trkpt lat="29.581422" lon="103.383804"><ele>983.45526</ele><time>2026-08-07T21:40:13.000Z</time></trkpt>
        <trkpt lat="29.581908" lon="103.383242"><ele>981.7344</ele><time>2026-08-07T21:41:29.000Z</time></trkpt>
        <trkpt lat="29.581904" lon="103.382674"><ele>996.0644</ele><time>2026-08-07T21:43:01.000Z</time></trkpt>
        <trkpt lat="29.582162" lon="103.381976"><ele>995.6194</ele><time>2026-08-07T21:44:23.000Z</time></trkpt>
        <trkpt lat="29.582772" lon="103.381156"><ele>1002.10004</ele><time>2026-08-07T21:46:16.000Z</time></trkpt>
        <trkpt lat="29.582778" lon="103.380651"><ele>998.6671</ele><time>2026-08-07T21:47:01.000Z</time></trkpt>
        <trkpt lat="29.58309" lon="103.379955"><ele>1002.9065</ele><time>2026-08-07T21:48:13.000Z</time></trkpt>
        <trkpt lat="29.582991" lon="103.379465"><ele>1018.1201</ele><time>2026-08-07T21:49:43.000Z</time></trkpt>
        <trkpt lat="29.582685" lon="103.379571"><ele>1020.0249</ele><time>2026-08-07T21:50:19.000Z</time></trkpt>
        <trkpt lat="29.582989" lon="103.378789"><ele>1031.0503</ele><time>2026-08-07T21:53:58.000Z</time></trkpt>
        <trkpt lat="29.582458" lon="103.378268"><ele>1069.6791</ele><time>2026-08-07T21:56:59.000Z</time></trkpt>
        <trkpt lat="29.582433" lon="103.377457"><ele>1086.4963</ele><time>2026-08-07T22:00:04.000Z</time></trkpt>
        <trkpt lat="29.582127" lon="103.377164"><ele>1111.2543</ele><time>2026-08-07T22:02:00.000Z</time></trkpt>
        <trkpt lat="29.582028" lon="103.376588"><ele>1138.7183</ele><time>2026-08-07T22:05:07.000Z</time></trkpt>
        <trkpt lat="29.581733" lon="103.376516"><ele>1154.4062</ele><time>2026-08-07T22:06:22.000Z</time></trkpt>
        <trkpt lat="29.581788" lon="103.37625"><ele>1164.7496</ele><time>2026-08-07T22:07:57.000Z</time></trkpt>
        <trkpt lat="29.581331" lon="103.376328"><ele>1192.8167</ele><time>2026-08-07T22:10:19.000Z</time></trkpt>
        <trkpt lat="29.581103" lon="103.376531"><ele>1209.3134</ele><time>2026-08-07T22:14:00.000Z</time></trkpt>
        <trkpt lat="29.580894" lon="103.376375"><ele>1224.9781</ele><time>2026-08-07T22:17:37.000Z</time></trkpt>
        <trkpt lat="29.580983" lon="103.376152"><ele>1236.981</ele><time>2026-08-07T22:18:38.000Z</time></trkpt>
        <trkpt lat="29.580392" lon="103.376325"><ele>1246.3384</ele><time>2026-08-07T22:20:14.000Z</time></trkpt>
        <trkpt lat="29.580036" lon="103.376219"><ele>1244.9454</ele><time>2026-08-07T22:21:04.000Z</time></trkpt>
        <trkpt lat="29.579873" lon="103.37565"><ele>1248.781</ele><time>2026-08-07T22:22:08.000Z</time></trkpt>
        <trkpt lat="29.580697" lon="103.375385"><ele>1293.7676</ele><time>2026-08-07T22:26:07.000Z</time></trkpt>
        <trkpt lat="29.58067" lon="103.373964"><ele>1347.5322</ele><time>2026-08-07T22:43:09.000Z</time></trkpt>
        <trkpt lat="29.579619" lon="103.372813"><ele>1392.2292</ele><time>2026-08-07T22:49:19.000Z</time></trkpt>
        <trkpt lat="29.579018" lon="103.372466"><ele>1408.9379</ele><time>2026-08-07T22:51:33.000Z</time></trkpt>
        <trkpt lat="29.57831" lon="103.371603"><ele>1431.338</ele><time>2026-08-07T22:55:04.000Z</time></trkpt>
        <trkpt lat="29.577543" lon="103.371023"><ele>1470.866</ele><time>2026-08-07T22:59:04.000Z</time></trkpt>
        <trkpt lat="29.577489" lon="103.37068"><ele>1470.1309</ele><time>2026-08-07T23:18:25.000Z</time></trkpt>
        <trkpt lat="29.576995" lon="103.370091"><ele>1471.3757</ele><time>2026-08-07T23:20:27.000Z</time></trkpt>
        <trkpt lat="29.576922" lon="103.368745"><ele>1479.2915</ele><time>2026-08-07T23:22:35.000Z</time></trkpt>
        <trkpt lat="29.577221" lon="103.367656"><ele>1507.5945</ele><time>2026-08-07T23:25:27.000Z</time></trkpt>
        <trkpt lat="29.576361" lon="103.366635"><ele>1504.9778</ele><time>2026-08-07T23:27:14.000Z</time></trkpt>
        <trkpt lat="29.576144" lon="103.366011"><ele>1479.0527</ele><time>2026-08-07T23:28:25.000Z</time></trkpt>
        <trkpt lat="29.575041" lon="103.365126"><ele>1494.1849</ele><time>2026-08-07T23:32:13.000Z</time></trkpt>
        <trkpt lat="29.574449" lon="103.364077"><ele>1540.544</ele><time>2026-08-07T23:35:49.000Z</time></trkpt>
        <trkpt lat="29.574386" lon="103.363809"><ele>1553.7496</ele><time>2026-08-07T23:36:31.000Z</time></trkpt>
        <trkpt lat="29.574639" lon="103.363701"><ele>1566.7181</ele><time>2026-08-07T23:37:46.000Z</time></trkpt>
        <trkpt lat="29.574609" lon="103.362956"><ele>1585.4435</ele><time>2026-08-07T23:41:21.000Z</time></trkpt>
        <trkpt lat="29.574906" lon="103.362644"><ele>1596.4921</ele><time>2026-08-07T23:42:33.000Z</time></trkpt>
        <trkpt lat="29.574814" lon="103.362449"><ele>1602.3934</ele><time>2026-08-07T23:42:59.000Z</time></trkpt>
        <trkpt lat="29.573972" lon="103.36254"><ele>1602.1685</ele><time>2026-08-07T23:44:29.000Z</time></trkpt>
        <trkpt lat="29.57297" lon="103.361641"><ele>1650.9899</ele><time>2026-08-07T23:48:57.000Z</time></trkpt>
        <trkpt lat="29.571657" lon="103.36189"><ele>1695.807</ele><time>2026-08-07T23:53:22.000Z</time></trkpt>
        <trkpt lat="29.57001" lon="103.361176"><ele>1706.2295</ele><time>2026-08-07T23:56:37.000Z</time></trkpt>
        <trkpt lat="29.568872" lon="103.360221"><ele>1728.9766</ele><time>2026-08-07T23:59:33.000Z</time></trkpt>
        <trkpt lat="29.568751" lon="103.359691"><ele>1735.0018</ele><time>2026-08-08T00:00:34.000Z</time></trkpt>
        <trkpt lat="29.56838" lon="103.359709"><ele>1742.1322</ele><time>2026-08-08T00:01:39.000Z</time></trkpt>
        <trkpt lat="29.568535" lon="103.360153"><ele>1734.4495</ele><time>2026-08-08T00:02:36.000Z</time></trkpt>
        <trkpt lat="29.56864" lon="103.360107"><ele>1733.9376</ele><time>2026-08-08T00:03:36.000Z</time></trkpt>
        <trkpt lat="29.568163" lon="103.359535"><ele>1738.9172</ele><time>2026-08-08T00:07:01.000Z</time></trkpt>
        <trkpt lat="29.567157" lon="103.359431"><ele>1758.3446</ele><time>2026-08-08T00:10:00.000Z</time></trkpt>
        <trkpt lat="29.566534" lon="103.359008"><ele>1773.0333</ele><time>2026-08-08T00:12:09.000Z</time></trkpt>
        <trkpt lat="29.566211" lon="103.358595"><ele>1787.0294</ele><time>2026-08-08T00:13:59.000Z</time></trkpt>
        <trkpt lat="29.565951" lon="103.357538"><ele>1820.8672</ele><time>2026-08-08T00:18:13.000Z</time></trkpt>
        <trkpt lat="29.564573" lon="103.356031"><ele>1883.1613</ele><time>2026-08-08T00:32:58.000Z</time></trkpt>
        <trkpt lat="29.564082" lon="103.356594"><ele>1913.274</ele><time>2026-08-08T00:37:37.000Z</time></trkpt>
        <trkpt lat="29.563811" lon="103.356469"><ele>1904.5969</ele><time>2026-08-08T00:39:38.000Z</time></trkpt>
        <trkpt lat="29.564078" lon="103.356612"><ele>1913.9799</ele><time>2026-08-08T01:01:27.000Z</time></trkpt>
        <trkpt lat="29.563776" lon="103.356568"><ele>1916.9537</ele><time>2026-08-08T01:04:49.000Z</time></trkpt>
        <trkpt lat="29.564155" lon="103.356415"><ele>1907.9286</ele><time>2026-08-08T01:06:31.000Z</time></trkpt>
        <trkpt lat="29.563913" lon="103.355251"><ele>1883.013</ele><time>2026-08-08T01:09:19.000Z</time></trkpt>
        <trkpt lat="29.563366" lon="103.354508"><ele>1879.1649</ele><time>2026-08-08T01:11:03.000Z</time></trkpt>
        <trkpt lat="29.563108" lon="103.353606"><ele>1879.6437</ele><time>2026-08-08T01:12:35.000Z</time></trkpt>
        <trkpt lat="29.562952" lon="103.352792"><ele>1863.8794</ele><time>2026-08-08T01:14:33.000Z</time></trkpt>
        <trkpt lat="29.563179" lon="103.352281"><ele>1850.1348</ele><time>2026-08-08T01:16:05.000Z</time></trkpt>
        <trkpt lat="29.562985" lon="103.351466"><ele>1844.7524</ele><time>2026-08-08T01:17:43.000Z</time></trkpt>
        <trkpt lat="29.56306" lon="103.351198"><ele>1836.0094</ele><time>2026-08-08T01:18:21.000Z</time></trkpt>
        <trkpt lat="29.562769" lon="103.350428"><ele>1825.9615</ele><time>2026-08-08T01:21:19.000Z</time></trkpt>
        <trkpt lat="29.563258" lon="103.34831"><ele>1828.2825</ele><time>2026-08-08T01:25:04.000Z</time></trkpt>
        <trkpt lat="29.563579" lon="103.347889"><ele>1832.8141</ele><time>2026-08-08T01:25:50.000Z</time></trkpt>
        <trkpt lat="29.563587" lon="103.347485"><ele>1824.5186</ele><time>2026-08-08T01:26:34.000Z</time></trkpt>
        <trkpt lat="29.562064" lon="103.345638"><ele>1811.7664</ele><time>2026-08-08T01:30:18.000Z</time></trkpt>
        <trkpt lat="29.561644" lon="103.3456"><ele>1817.4954</ele><time>2026-08-08T01:31:06.000Z</time></trkpt>
        <trkpt lat="29.561169" lon="103.345015"><ele>1832.086</ele><time>2026-08-08T01:33:28.000Z</time></trkpt>
        <trkpt lat="29.560871" lon="103.345037"><ele>1854.8423</ele><time>2026-08-08T01:36:54.000Z</time></trkpt>
        <trkpt lat="29.560685" lon="103.344683"><ele>1883.3125</ele><time>2026-08-08T01:40:07.000Z</time></trkpt>
        <trkpt lat="29.56023" lon="103.34443"><ele>1911.5557</ele><time>2026-08-08T01:42:50.000Z</time></trkpt>
        <trkpt lat="29.560044" lon="103.344182"><ele>1930.1283</ele><time>2026-08-08T01:45:02.000Z</time></trkpt>
        <trkpt lat="29.560139" lon="103.343904"><ele>1944.9872</ele><time>2026-08-08T01:47:06.000Z</time></trkpt>
        <trkpt lat="29.559677" lon="103.343469"><ele>1978.2944</ele><time>2026-08-08T01:51:04.000Z</time></trkpt>
        <trkpt lat="29.559264" lon="103.34359"><ele>2005.4554</ele><time>2026-08-08T01:54:41.000Z</time></trkpt>
        <trkpt lat="29.559205" lon="103.343778"><ele>2012.9072</ele><time>2026-08-08T01:55:31.000Z</time></trkpt>
        <trkpt lat="29.558952" lon="103.343671"><ele>2033.22</ele><time>2026-08-08T01:58:49.000Z</time></trkpt>
        <trkpt lat="29.558831" lon="103.344304"><ele>2056.145</ele><time>2026-08-08T02:01:59.000Z</time></trkpt>
        <trkpt lat="29.558131" lon="103.344031"><ele>2069.1802</ele><time>2026-08-08T02:05:15.000Z</time></trkpt>
        <trkpt lat="29.558106" lon="103.343882"><ele>2069.9849</ele><time>2026-08-08T02:06:36.000Z</time></trkpt>
        <trkpt lat="29.558226" lon="103.344193"><ele>2074.8955</ele><time>2026-08-08T02:11:54.000Z</time></trkpt>
        <trkpt lat="29.558179" lon="103.343937"><ele>2068.4934</ele><time>2026-08-08T02:15:38.000Z</time></trkpt>
        <trkpt lat="29.558065" lon="103.344055"><ele>2068.6646</ele><time>2026-08-08T02:16:20.000Z</time></trkpt>
        <trkpt lat="29.558164" lon="103.344072"><ele>2065.0837</ele><time>2026-08-08T02:16:39.000Z</time></trkpt>
        <trkpt lat="29.557727" lon="103.344013"><ele>2064.971</ele><time>2026-08-08T02:17:44.000Z</time></trkpt>
        <trkpt lat="29.557688" lon="103.344159"><ele>2064.5283</ele><time>2026-08-08T02:17:48.000Z</time></trkpt>
        <trkpt lat="29.557541" lon="103.343651"><ele>2075.598</ele><time>2026-08-08T02:23:24.000Z</time></trkpt>
        <trkpt lat="29.557398" lon="103.343748"><ele>2075.7495</ele><time>2026-08-08T02:24:35.000Z</time></trkpt>
        <trkpt lat="29.557205" lon="103.343556"><ele>2089.2498</ele><time>2026-08-08T02:28:31.000Z</time></trkpt>
        <trkpt lat="29.556578" lon="103.343856"><ele>2118.2576</ele><time>2026-08-08T02:31:49.000Z</time></trkpt>
        <trkpt lat="29.555846" lon="103.344952"><ele>2161.3171</ele><time>2026-08-08T02:38:44.000Z</time></trkpt>
        <trkpt lat="29.555599" lon="103.3449"><ele>2171.1223</ele><time>2026-08-08T02:39:46.000Z</time></trkpt>
        <trkpt lat="29.555438" lon="103.345081"><ele>2183.516</ele><time>2026-08-08T02:41:38.000Z</time></trkpt>
        <trkpt lat="29.555276" lon="103.344969"><ele>2198.287</ele><time>2026-08-08T02:43:04.000Z</time></trkpt>
        <trkpt lat="29.554731" lon="103.345338"><ele>2222.5125</ele><time>2026-08-08T02:45:47.000Z</time></trkpt>
        <trkpt lat="29.554126" lon="103.3455"><ele>2251.4177</ele><time>2026-08-08T02:49:13.000Z</time></trkpt>
        <trkpt lat="29.553327" lon="103.345285"><ele>2276.4565</ele><time>2026-08-08T03:19:31.000Z</time></trkpt>
        <trkpt lat="29.55246" lon="103.345442"><ele>2278.4814</ele><time>2026-08-08T03:26:25.000Z</time></trkpt>
        <trkpt lat="29.552402" lon="103.34519"><ele>2277.858</ele><time>2026-08-08T03:26:51.000Z</time></trkpt>
        <trkpt lat="29.552007" lon="103.345024"><ele>2275.385</ele><time>2026-08-08T03:27:43.000Z</time></trkpt>
        <trkpt lat="29.551589" lon="103.344277"><ele>2275.1523</ele><time>2026-08-08T03:29:17.000Z</time></trkpt>
        <trkpt lat="29.550812" lon="103.3441"><ele>2269.301</ele><time>2026-08-08T03:30:53.000Z</time></trkpt>
        <trkpt lat="29.550346" lon="103.343587"><ele>2271.4136</ele><time>2026-08-08T03:32:15.000Z</time></trkpt>
        <trkpt lat="29.549381" lon="103.34215"><ele>2280.8147</ele><time>2026-08-08T03:34:59.000Z</time></trkpt>
        <trkpt lat="29.549069" lon="103.341191"><ele>2287.0889</ele><time>2026-08-08T03:37:43.000Z</time></trkpt>
        <trkpt lat="29.54838" lon="103.341243"><ele>2312.9746</ele><time>2026-08-08T03:40:49.000Z</time></trkpt>
        <trkpt lat="29.547364" lon="103.340973"><ele>2338.8252</ele><time>2026-08-08T03:44:35.000Z</time></trkpt>
        <trkpt lat="29.547063" lon="103.339755"><ele>2380.8606</ele><time>2026-08-08T03:50:22.000Z</time></trkpt>
        <trkpt lat="29.546171" lon="103.338412"><ele>2446.273</ele><time>2026-08-08T03:58:27.000Z</time></trkpt>
        <trkpt lat="29.546591" lon="103.337321"><ele>2463.684</ele><time>2026-08-08T04:02:14.000Z</time></trkpt>
        <trkpt lat="29.546442" lon="103.336512"><ele>2458.4092</ele><time>2026-08-08T04:04:19.000Z</time></trkpt>
        <trkpt lat="29.546789" lon="103.335376"><ele>2441.2773</ele><time>2026-08-08T04:08:29.000Z</time></trkpt>
        <trkpt lat="29.54673" lon="103.335004"><ele>2434.5977</ele><time>2026-08-08T04:09:25.000Z</time></trkpt>
        <trkpt lat="29.546468" lon="103.334777"><ele>2435.0212</ele><time>2026-08-08T04:10:35.000Z</time></trkpt>
        <trkpt lat="29.545942" lon="103.334721"><ele>2440.632</ele><time>2026-08-08T04:12:34.000Z</time></trkpt>
        <trkpt lat="29.54509" lon="103.334059"><ele>2437.364</ele><time>2026-08-08T04:15:31.000Z</time></trkpt>
        <trkpt lat="29.544666" lon="103.33424"><ele>2431.7432</ele><time>2026-08-08T04:16:35.000Z</time></trkpt>
        <trkpt lat="29.543636" lon="103.333877"><ele>2427.8418</ele><time>2026-08-08T04:18:25.000Z</time></trkpt>
        <trkpt lat="29.543166" lon="103.332997"><ele>2425.5632</ele><time>2026-08-08T04:20:24.000Z</time></trkpt>
        <trkpt lat="29.542571" lon="103.3326"><ele>2431.9026</ele><time>2026-08-08T04:21:48.000Z</time></trkpt>
        <trkpt lat="29.542287" lon="103.332018"><ele>2434.1177</ele><time>2026-08-08T04:23:19.000Z</time></trkpt>
        <trkpt lat="29.54199" lon="103.331958"><ele>2425.2886</ele><time>2026-08-08T04:24:24.000Z</time></trkpt>
        <trkpt lat="29.541884" lon="103.331639"><ele>2424.9126</ele><time>2026-08-08T04:25:50.000Z</time></trkpt>
        <trkpt lat="29.541576" lon="103.331572"><ele>2425.692</ele><time>2026-08-08T04:26:40.000Z</time></trkpt>
        <trkpt lat="29.541427" lon="103.331279"><ele>2428.7253</ele><time>2026-08-08T04:27:34.000Z</time></trkpt>
        <trkpt lat="29.541377" lon="103.331487"><ele>2426.4424</ele><time>2026-08-08T04:28:22.000Z</time></trkpt>
        <trkpt lat="29.541795" lon="103.331547"><ele>2426.3162</ele><time>2026-08-08T05:15:15.000Z</time></trkpt>
        <trkpt lat="29.541925" lon="103.331757"><ele>2422.2222</ele><time>2026-08-08T05:15:59.000Z</time></trkpt>
        <trkpt lat="29.541961" lon="103.331535"><ele>2425.072</ele><time>2026-08-08T05:22:36.000Z</time></trkpt>
        <trkpt lat="29.541751" lon="103.331578"><ele>2423.393</ele><time>2026-08-08T05:30:43.000Z</time></trkpt>
        <trkpt lat="29.541985" lon="103.331427"><ele>2421.087</ele><time>2026-08-08T05:31:18.000Z</time></trkpt>
        <trkpt lat="29.541789" lon="103.331464"><ele>2424.6272</ele><time>2026-08-08T05:31:56.000Z</time></trkpt>
        <trkpt lat="29.541913" lon="103.331658"><ele>2424.2637</ele><time>2026-08-08T05:32:49.000Z</time></trkpt>
        <trkpt lat="29.541985" lon="103.331544"><ele>2426.6243</ele><time>2026-08-08T05:33:00.000Z</time></trkpt>
        <trkpt lat="29.541114" lon="103.331763"><ele>2425.5945</ele><time>2026-08-08T06:37:25.000Z</time></trkpt>
      </trkseg>
      <trkseg>
        <trkpt lat="29.541135" lon="103.331749"><ele>2427.5952</ele><time>2026-08-08T07:19:29.000Z</time></trkpt>
        <trkpt lat="29.541304" lon="103.331462"><ele>2427.9526</ele><time>2026-08-08T07:58:58.000Z</time></trkpt>
        <trkpt lat="29.540711" lon="103.330942"><ele>2429.7793</ele><time>2026-08-08T08:00:14.000Z</time></trkpt>
        <trkpt lat="29.539961" lon="103.331009"><ele>2435.8555</ele><time>2026-08-08T08:01:44.000Z</time></trkpt>
        <trkpt lat="29.540741" lon="103.33094"><ele>2428.4902</ele><time>2026-08-08T08:03:22.000Z</time></trkpt>
        <trkpt lat="29.541164" lon="103.331355"><ele>2426.9016</ele><time>2026-08-08T08:04:10.000Z</time></trkpt>
        <trkpt lat="29.541807" lon="103.331634"><ele>2424.7212</ele><time>2026-08-08T08:05:14.000Z</time></trkpt>
        <trkpt lat="29.542013" lon="103.331975"><ele>2423.544</ele><time>2026-08-08T08:05:44.000Z</time></trkpt>
        <trkpt lat="29.5423" lon="103.331856"><ele>2429.5684</ele><time>2026-08-08T08:08:03.000Z</time></trkpt>
      </trkseg>
      <trkseg>
        <trkpt lat="29.541214" lon="103.331736"><ele>2427.848</ele><time>2026-08-08T11:00:12.000Z</time></trkpt>
        <trkpt lat="29.541223" lon="103.331618"><ele>2424.3616</ele><time>2026-08-08T11:24:04.000Z</time></trkpt>
        <trkpt lat="29.54118" lon="103.331789"><ele>2422.0242</ele><time>2026-08-08T11:26:25.000Z</time></trkpt>
        <trkpt lat="29.540713" lon="103.331718"><ele>2433.76</ele><time>2026-08-08T11:27:29.000Z</time></trkpt>
        <trkpt lat="29.540351" lon="103.331921"><ele>2435.0278</ele><time>2026-08-08T11:28:37.000Z</time></trkpt>
        <trkpt lat="29.538883" lon="103.333023"><ele>2452.2837</ele><time>2026-08-08T11:34:12.000Z</time></trkpt>
        <trkpt lat="29.538268" lon="103.333209"><ele>2458.0952</ele><time>2026-08-08T11:35:41.000Z</time></trkpt>
        <trkpt lat="29.537624" lon="103.333735"><ele>2460.3938</ele><time>2026-08-08T11:37:17.000Z</time></trkpt>
        <trkpt lat="29.537333" lon="103.33374"><ele>2472.014</ele><time>2026-08-08T11:38:03.000Z</time></trkpt>
        <trkpt lat="29.537177" lon="103.334106"><ele>2477.1887</ele><time>2026-08-08T11:39:03.000Z</time></trkpt>
        <trkpt lat="29.536909" lon="103.334275"><ele>2479.0298</ele><time>2026-08-08T11:40:05.000Z</time></trkpt>
        <trkpt lat="29.53624" lon="103.334337"><ele>2490.9126</ele><time>2026-08-08T11:43:54.000Z</time></trkpt>
        <trkpt lat="29.535605" lon="103.333951"><ele>2506.5237</ele><time>2026-08-08T11:45:58.000Z</time></trkpt>
        <trkpt lat="29.535381" lon="103.333635"><ele>2510.336</ele><time>2026-08-08T11:47:02.000Z</time></trkpt>
        <trkpt lat="29.535393" lon="103.333053"><ele>2516.2515</ele><time>2026-08-08T11:48:04.000Z</time></trkpt>
        <trkpt lat="29.53502" lon="103.332479"><ele>2518.1643</ele><time>2026-08-08T11:49:24.000Z</time></trkpt>
        <trkpt lat="29.534866" lon="103.33138"><ele>2519.971</ele><time>2026-08-08T11:51:12.000Z</time></trkpt>
        <trkpt lat="29.534704" lon="103.331461"><ele>2522.091</ele><time>2026-08-08T11:51:34.000Z</time></trkpt>
        <trkpt lat="29.534665" lon="103.33244"><ele>2529.8887</ele><time>2026-08-08T11:53:12.000Z</time></trkpt>
        <trkpt lat="29.534829" lon="103.332935"><ele>2536.545</ele><time>2026-08-08T11:54:03.000Z</time></trkpt>
        <trkpt lat="29.533922" lon="103.333209"><ele>2566.102</ele><time>2026-08-08T11:58:33.000Z</time></trkpt>
        <trkpt lat="29.532899" lon="103.332318"><ele>2611.9182</ele><time>2026-08-08T12:07:25.000Z</time></trkpt>
        <trkpt lat="29.532329" lon="103.331151"><ele>2659.576</ele><time>2026-08-08T12:16:48.000Z</time></trkpt>
        <trkpt lat="29.532178" lon="103.331418"><ele>2665.1511</ele><time>2026-08-08T12:17:53.000Z</time></trkpt>
        <trkpt lat="29.532157" lon="103.330268"><ele>2695.6377</ele><time>2026-08-08T12:22:55.000Z</time></trkpt>
        <trkpt lat="29.531443" lon="103.329916"><ele>2737.519</ele><time>2026-08-08T12:27:47.000Z</time></trkpt>
        <trkpt lat="29.531116" lon="103.329433"><ele>2769.3528</ele><time>2026-08-08T12:33:16.000Z</time></trkpt>
        <trkpt lat="29.531204" lon="103.327143"><ele>2817.108</ele><time>2026-08-08T12:42:35.000Z</time></trkpt>
        <trkpt lat="29.530799" lon="103.326829"><ele>2831.416</ele><time>2026-08-08T12:44:28.000Z</time></trkpt>
        <trkpt lat="29.530579" lon="103.326833"><ele>2836.6707</ele><time>2026-08-08T12:45:59.000Z</time></trkpt>
        <trkpt lat="29.530033" lon="103.327182"><ele>2852.808</ele><time>2026-08-08T12:54:30.000Z</time></trkpt>
        <trkpt lat="29.529632" lon="103.327836"><ele>2862.7366</ele><time>2026-08-08T13:10:15.000Z</time></trkpt>
        <trkpt lat="29.529292" lon="103.327804"><ele>2860.059</ele><time>2026-08-08T13:11:50.000Z</time></trkpt>
        <trkpt lat="29.528567" lon="103.329902"><ele>2900.387</ele><time>2026-08-08T13:18:47.000Z</time></trkpt>
        <trkpt lat="29.528275" lon="103.330339"><ele>2904.7388</ele><time>2026-08-08T13:19:49.000Z</time></trkpt>
        <trkpt lat="29.528322" lon="103.330619"><ele>2903.9856</ele><time>2026-08-08T13:20:29.000Z</time></trkpt>
        <trkpt lat="29.527705" lon="103.331636"><ele>2930.0923</ele><time>2026-08-08T13:24:33.000Z</time></trkpt>
        <trkpt lat="29.52758" lon="103.332344"><ele>2949.2944</ele><time>2026-08-08T13:26:34.000Z</time></trkpt>
        <trkpt lat="29.527404" lon="103.332516"><ele>2951.9604</ele><time>2026-08-08T13:27:30.000Z</time></trkpt>
        <trkpt lat="29.527159" lon="103.332267"><ele>2953.742</ele><time>2026-08-08T13:28:20.000Z</time></trkpt>
        <trkpt lat="29.527055" lon="103.332353"><ele>2956.6694</ele><time>2026-08-08T13:28:36.000Z</time></trkpt>
        <trkpt lat="29.527002" lon="103.333419"><ele>2970.905</ele><time>2026-08-08T13:31:12.000Z</time></trkpt>
        <trkpt lat="29.525843" lon="103.333982"><ele>3000.6218</ele><time>2026-08-08T13:34:30.000Z</time></trkpt>
        <trkpt lat="29.525054" lon="103.334824"><ele>3020.6917</ele><time>2026-08-08T13:38:01.000Z</time></trkpt>
        <trkpt lat="29.524659" lon="103.334769"><ele>3023.0247</ele><time>2026-08-08T13:39:27.000Z</time></trkpt>
        <trkpt lat="29.524074" lon="103.334946"><ele>3029.179</ele><time>2026-08-08T13:40:43.000Z</time></trkpt>
        <trkpt lat="29.522709" lon="103.334815"><ele>3043.1306</ele><time>2026-08-08T13:48:55.000Z</time></trkpt>
        <trkpt lat="29.522833" lon="103.335868"><ele>3059.6667</ele><time>2026-08-08T13:51:31.000Z</time></trkpt>
        <trkpt lat="29.52301" lon="103.335903"><ele>3063.4983</ele><time>2026-08-08T13:52:11.000Z</time></trkpt>
        <trkpt lat="29.5231" lon="103.336371"><ele>3065.6245</ele><time>2026-08-08T13:52:55.000Z</time></trkpt>
      </trkseg>
  </trk>
</gpx>